Time;durP1;ratioP1;P1;durP2;ratioP2;P2;SDS_P1;SDS_P2;PMS_P1;PMS_P2;Temp;Humidity;BMP_temperature;BMP_pressure;BME280_temperature;BME280_humidity;BME280_pressure;Samples;Min_cycle;Max_cycle;Signal;HPM_P1;HPM_P2
2022/06/13 00:00:03;;;;;;;13.43;2.93;;;16.80;45.50;;;;;;5049734;28;20453;-55
2022/06/13 00:02:30;;;;;;;7.23;2.00;;;16.80;49.40;;;;;;5050230;28;20508;-58
2022/06/13 00:04:56;;;;;;;7.53;2.00;;;16.70;40.70;;;;;;5050657;28;20485;-56
2022/06/13 00:07:23;;;;;;;10.47;2.37;;;16.80;46.50;;;;;;5052643;28;21160;-56
2022/06/13 00:09:49;;;;;;;5.90;2.23;;;16.70;47.30;;;;;;5048446;28;20458;-56
2022/06/13 00:12:16;;;;;;;5.27;2.13;;;16.70;46.60;;;;;;5048033;28;20517;-56
2022/06/13 00:14:43;;;;;;;8.63;2.20;;;16.70;45.80;;;;;;5051659;28;20494;-55
2022/06/13 00:17:11;;;;;;;5.17;2.13;;;16.70;46.40;;;;;;5050012;28;20459;-55
2022/06/13 00:19:37;;;;;;;7.83;1.80;;;16.60;44.30;;;;;;5048487;28;20465;-56
2022/06/13 00:22:05;;;;;;;5.73;2.40;;;16.50;44.30;;;;;;5051573;28;20474;-55
2022/06/13 00:24:32;;;;;;;4.40;2.00;;;16.50;41.90;;;;;;5047331;28;20464;-56
2022/06/13 00:26:58;;;;;;;10.83;2.70;;;16.50;42.80;;;;;;5049220;28;20511;-55
2022/06/13 00:29:25;;;;;;;6.33;2.27;;;16.50;39.40;;;;;;5037679;28;20489;-55
2022/06/13 00:31:51;;;;;;;10.97;3.37;;;16.50;40.90;;;;;;5045655;28;21056;-55
2022/06/13 00:34:19;;;;;;;6.27;2.63;;;16.40;40.70;;;;;;5044655;28;20522;-56
2022/06/13 00:36:46;;;;;;;4.80;2.33;;;16.40;39.90;;;;;;5044815;28;20462;-55
2022/06/13 00:39:13;;;;;;;9.00;2.30;;;16.40;40.70;;;;;;5038869;28;20482;-55
2022/06/13 00:41:42;;;;;;;7.37;2.57;;;16.40;37.90;;;;;;5040527;28;20576;-55
2022/06/13 00:44:19;;;;;;;11.83;2.77;;;16.40;37.80;;;;;;5044826;28;20482;-55
2022/06/13 00:46:46;;;;;;;9.27;2.90;;;16.40;38.20;;;;;;5052292;28;20826;-56
2022/06/13 00:49:16;;;;;;;6.03;2.50;;;16.30;37.70;;;;;;5041151;28;20485;-56
2022/06/13 00:51:48;;;;;;;3.87;2.33;;;16.30;33.70;;;;;;5050222;28;20571;-55
2022/06/13 00:54:17;;;;;;;12.30;2.33;;;16.30;33.20;;;;;;5049524;28;20539;-55
2022/06/13 00:56:44;;;;;;;3.60;1.77;;;16.30;31.70;;;;;;5050292;28;20536;-56
2022/06/13 00:59:15;;;;;;;6.07;2.50;;;16.20;30.00;;;;;;5046423;28;20937;-55
2022/06/13 01:01:42;;;;;;;7.00;2.27;;;16.20;32.00;;;;;;5043262;28;20500;-56
2022/06/13 01:04:10;;;;;;;8.20;2.47;;;16.20;28.10;;;;;;5052135;28;20458;-56
2022/06/13 01:06:41;;;;;;;7.27;2.50;;;16.10;26.80;;;;;;5047868;28;20458;-55
2022/06/13 01:09:14;;;;;;;5.20;2.50;;;16.10;27.40;;;;;;5049283;28;20483;-55
2022/06/13 01:11:44;;;;;;;5.53;2.20;;;16.10;24.90;;;;;;5040506;28;20486;-56
2022/06/13 01:14:46;;;;;;;6.27;1.73;;;16.00;94.20;;;;;;5047087;28;20524;-56
2022/06/13 01:17:31;;;;;;;5.47;2.30;;;16.00;74.90;;;;;;5044920;28;20491;-55
2022/06/13 01:20:33;;;;;;;5.90;2.63;;;16.00;99.90;;;;;;5040911;28;20983;-56
2022/06/13 01:23:36;;;;;;;3.63;2.27;;;16.00;94.10;;;;;;5048650;28;20985;-56
2022/06/13 01:26:22;;;;;;;10.30;3.10;;;15.90;85.40;;;;;;5051033;28;20957;-55
2022/06/13 01:29:07;;;;;;;4.60;2.63;;;15.90;99.90;;;;;;5046836;28;20457;-56
2022/06/13 01:35:11;;;;;;;7.23;2.40;;;15.80;99.90;;;;;;5040655;28;20482;-56
2022/06/13 01:37:48;;;;;;;11.73;2.90;;;15.80;99.90;;;;;;5041700;28;20485;-56
2022/06/13 01:40:29;;;;;;;6.93;2.23;;;15.80;99.90;;;;;;5039925;28;20497;-55
2022/06/13 01:43:06;;;;;;;8.97;2.70;;;15.70;99.90;;;;;;5044703;28;21061;-56
2022/06/13 01:45:39;;;;;;;6.83;2.10;;;15.70;99.90;;;;;;5047169;28;20535;-56
2022/06/13 01:48:11;;;;;;;6.70;2.50;;;15.70;99.90;;;;;;5050889;28;20492;-56
2022/06/13 01:50:43;;;;;;;7.10;2.50;;;15.70;99.90;;;;;;5047904;28;20493;-56
2022/06/13 01:53:19;;;;;;;7.67;2.60;;;15.60;99.90;;;;;;5048631;28;20510;-55
2022/06/13 01:55:51;;;;;;;14.43;2.70;;;15.60;99.90;;;;;;5042786;28;20493;-56
2022/06/13 01:58:38;;;;;;;8.67;3.03;;;15.60;99.90;;;;;;5046509;28;20643;-56
2022/06/13 02:01:10;;;;;;;4.73;2.63;;;15.60;99.90;;;;;;5043027;28;20562;-56
2022/06/13 02:03:43;;;;;;;6.90;2.53;;;15.50;99.90;;;;;;5047325;28;20489;-56
2022/06/13 02:06:17;;;;;;;5.40;2.30;;;15.50;99.90;;;;;;5040365;28;20458;-55
2022/06/13 02:08:50;;;;;;;7.20;2.20;;;15.50;99.90;;;;;;5050650;28;20493;-56
2022/06/13 02:11:22;;;;;;;10.23;3.23;;;15.50;99.90;;;;;;5045848;28;20458;-56
2022/06/13 02:13:52;;;;;;;5.03;2.17;;;15.50;99.90;;;;;;5044663;28;21285;-56
2022/06/13 02:16:23;;;;;;;6.57;2.20;;;15.50;99.90;;;;;;5045970;28;20496;-55
2022/06/13 02:18:56;;;;;;;6.47;2.70;;;15.50;99.90;;;;;;5046918;28;20466;-56
2022/06/13 02:21:31;;;;;;;5.57;2.60;;;15.50;99.90;;;;;;5047427;28;20561;-56
2022/06/13 02:24:00;;;;;;;6.33;2.50;;;15.60;99.90;;;;;;5047501;28;20457;-56
2022/06/13 02:26:33;;;;;;;7.47;3.37;;;15.50;99.90;;;;;;5045952;28;20556;-55
2022/06/13 02:29:04;;;;;;;6.30;2.23;;;15.60;99.90;;;;;;5048100;28;21059;-55
2022/06/13 02:31:35;;;;;;;10.67;2.60;;;15.60;99.90;;;;;;5045944;28;20573;-55
2022/06/13 02:34:09;;;;;;;8.20;2.30;;;15.60;99.90;;;;;;5049911;28;20556;-55
2022/06/13 02:36:42;;;;;;;12.57;2.53;;;15.60;99.90;;;;;;5054499;28;20582;-56
2022/06/13 02:39:13;;;;;;;5.80;2.47;;;15.60;99.90;;;;;;5047159;28;20464;-55
2022/06/13 02:41:44;;;;;;;11.40;3.23;;;15.70;99.90;;;;;;5046049;28;20517;-56
2022/06/13 02:44:17;;;;;;;8.63;3.30;;;15.60;99.90;;;;;;5042745;28;20512;-56
2022/06/13 02:46:48;;;;;;;7.50;2.73;;;15.60;99.90;;;;;;5049099;28;20955;-56
2022/06/13 02:49:19;;;;;;;4.60;2.40;;;15.60;99.90;;;;;;5043780;28;20461;-56
2022/06/13 02:51:58;;;;;;;4.03;2.40;;;15.60;99.90;;;;;;5050357;28;20504;-54
2022/06/13 02:54:32;;;;;;;15.30;3.23;;;15.50;99.90;;;;;;5045487;28;20485;-56
2022/06/13 02:57:25;;;;;;;6.03;2.20;;;15.50;99.90;;;;;;5042114;28;20580;-56
2022/06/13 03:00:11;;;;;;;8.63;2.73;;;15.50;99.90;;;;;;5054578;28;20484;-56
2022/06/13 03:02:47;;;;;;;4.87;2.80;;;15.40;99.90;;;;;;5047829;28;21150;-56
2022/06/13 03:05:28;;;;;;;5.93;3.70;;;15.40;99.90;;;;;;5044244;28;20547;-56
2022/06/13 03:08:04;;;;;;;6.93;2.70;;;15.40;99.90;;;;;;5056401;28;20557;-56
2022/06/13 03:10:37;;;;;;;9.50;2.40;;;15.30;99.90;;;;;;5049801;28;20526;-55
2022/06/13 03:13:09;;;;;;;8.10;2.70;;;15.30;99.90;;;;;;5050850;28;20520;-56
2022/06/13 03:15:48;;;;;;;6.20;2.63;;;15.20;99.90;;;;;;5046809;28;20560;-55
2022/06/13 03:18:18;;;;;;;10.90;3.00;;;15.30;99.90;;;;;;5047224;28;20974;-56
2022/06/13 03:20:49;;;;;;;11.50;2.83;;;15.30;99.90;;;;;;5054744;28;20898;-56
2022/06/13 03:23:22;;;;;;;6.40;2.53;;;15.30;99.90;;;;;;5042278;28;20506;-55
2022/06/13 03:25:52;;;;;;;13.10;3.17;;;15.20;99.90;;;;;;5044637;28;20561;-56
2022/06/13 03:28:23;;;;;;;7.40;2.60;;;15.20;99.90;;;;;;5050226;28;20552;-56
2022/06/13 03:30:58;;;;;;;5.97;2.83;;;15.20;99.90;;;;;;5052024;28;20457;-56
2022/06/13 03:33:42;;;;;;;6.10;2.60;;;15.10;99.90;;;;;;5050600;28;20576;-55
2022/06/13 03:36:14;;;;;;;10.43;2.90;;;15.10;99.90;;;;;;5049942;28;20491;-56
2022/06/13 03:38:49;;;;;;;10.07;2.80;;;15.10;99.90;;;;;;5051312;28;20508;-55
2022/06/13 03:41:18;;;;;;;6.13;3.00;;;15.00;99.90;;;;;;5047699;28;20457;-55
2022/06/13 03:43:48;;;;;;;11.30;3.20;;;15.00;99.90;;;;;;5048411;28;20979;-56
2022/06/13 03:46:19;;;;;;;8.60;2.77;;;14.90;99.90;;;;;;5047287;28;20553;-55
2022/06/13 03:48:52;;;;;;;5.70;2.73;;;14.90;99.90;;;;;;5046210;28;20561;-55
2022/06/13 03:51:23;;;;;;;6.25;2.85;;;14.90;99.90;;;;;;5042783;28;20541;-53
2022/06/13 03:53:55;;;;;;;4.80;2.93;;;14.90;99.90;;;;;;5052047;28;20808;-54
2022/06/13 03:56:27;;;;;;;6.77;3.07;;;14.90;99.90;;;;;;5054858;28;20496;-54
2022/06/13 03:58:59;;;;;;;9.73;3.47;;;14.90;99.90;;;;;;5060840;28;20460;-54
2022/06/13 04:01:29;;;;;;;11.03;3.43;;;14.90;99.90;;;;;;5047553;28;20505;-54
2022/06/13 04:03:56;;;;;;;5.00;3.10;;;14.80;99.90;;;;;;5049501;28;21043;-54
2022/06/13 04:06:32;;;;;;;7.40;2.80;;;14.90;99.90;;;;;;5051094;28;20849;-55
2022/06/13 04:09:02;;;;;;;7.67;2.97;;;14.90;99.90;;;;;;5048083;28;20547;-53
2022/06/13 04:11:41;;;;;;;6.40;3.03;;;14.90;99.90;;;;;;5050775;28;20524;-54
2022/06/13 04:14:16;;;;;;;6.73;3.00;;;14.90;99.90;;;;;;5049962;28;20509;-54
2022/06/13 04:16:52;;;;;;;6.23;2.90;;;14.80;99.90;;;;;;5050092;28;20540;-54
2022/06/13 04:19:33;;;;;;;11.87;5.97;;;14.80;99.90;;;;;;5048722;28;20492;-54
2022/06/13 04:22:08;;;;;;;5.40;2.80;;;14.80;99.90;;;;;;5046216;28;20505;-53
2022/06/13 04:24:45;;;;;;;10.43;3.40;;;14.70;99.90;;;;;;5050638;28;20540;-55
2022/06/13 04:27:18;;;;;;;8.30;2.93;;;14.70;99.90;;;;;;5049734;28;20488;-55
2022/06/13 04:29:48;;;;;;;8.20;3.27;;;14.60;99.90;;;;;;5049154;28;20536;-52
2022/06/13 04:32:19;;;;;;;6.57;3.20;;;14.60;99.90;;;;;;5045961;28;20576;-54
2022/06/13 04:34:48;;;;;;;13.83;3.77;;;14.60;99.90;;;;;;5050907;28;20569;-55
2022/06/13 04:37:15;;;;;;;12.90;4.07;;;14.60;99.90;;;;;;5052028;28;20555;-53
2022/06/13 04:39:46;;;;;;;8.10;3.10;;;14.60;99.90;;;;;;5047911;28;20502;-55
2022/06/13 04:42:15;;;;;;;8.70;3.00;;;14.60;99.90;;;;;;5049347;28;20920;-55
2022/06/13 04:44:43;;;;;;;11.57;4.20;;;14.60;99.90;;;;;;5043667;28;20547;-53
2022/06/13 04:47:14;;;;;;;9.20;3.40;;;14.60;99.90;;;;;;5043285;28;20899;-55
2022/06/13 04:49:45;;;;;;;12.43;3.53;;;14.70;99.90;;;;;;5043255;28;20544;-53
2022/06/13 04:52:16;;;;;;;9.70;3.37;;;14.80;99.90;;;;;;5042888;28;20573;-53
2022/06/13 04:54:48;;;;;;;14.40;3.00;;;14.80;99.90;;;;;;5036151;28;20513;-54
2022/06/13 04:57:17;;;;;;;12.17;3.67;;;14.80;99.90;;;;;;5042311;28;20520;-54
2022/06/13 04:59:44;;;;;;;17.73;3.47;;;14.80;88.70;;;;;;5044692;28;20458;-55
2022/06/13 05:02:15;;;;;;;9.87;5.20;;;14.90;77.60;;;;;;5041579;28;20505;-55
2022/06/13 05:04:42;;;;;;;8.83;3.60;;;14.90;29.10;;;;;;5044182;28;20458;-53
2022/06/13 05:07:12;;;;;;;8.67;3.90;;;14.90;26.00;;;;;;5045802;28;20914;-54
2022/06/13 05:09:43;;;;;;;5.87;3.00;;;14.90;26.80;;;;;;5044698;28;20497;-53
2022/06/13 05:12:16;;;;;;;11.27;4.43;;;14.90;27.20;;;;;;5047914;28;21045;-54
2022/06/13 05:14:50;;;;;;;10.70;4.80;;;15.00;31.50;;;;;;5041807;28;20569;-54
2022/06/13 05:17:32;;;;;;;10.97;4.27;;;15.00;37.70;;;;;;5047629;28;20874;-54
2022/06/13 05:20:04;;;;;;;10.03;4.17;;;15.10;41.90;;;;;;5039578;28;20541;-54
2022/06/13 05:22:46;;;;;;;10.07;3.83;;;15.30;41.50;;;;;;5035825;28;20585;-54
2022/06/13 05:25:30;;;;;;;13.37;3.93;;;15.40;55.00;;;;;;5048015;28;20458;-54
2022/06/13 05:27:59;;;;;;;14.53;4.73;;;15.40;57.60;;;;;;5051046;28;20496;-54
2022/06/13 05:30:26;;;;;;;12.33;3.47;;;15.40;56.00;;;;;;5045006;28;20548;-54
2022/06/13 05:32:54;;;;;;;15.47;4.20;;;15.50;65.70;;;;;;5050943;28;20473;-54
2022/06/13 05:35:25;;;;;;;12.60;4.23;;;15.40;69.90;;;;;;5041631;28;20568;-53
2022/06/13 05:37:55;;;;;;;16.80;4.60;;;15.30;70.90;;;;;;5047853;28;20494;-53
2022/06/13 05:40:23;;;;;;;8.23;3.67;;;15.30;65.80;;;;;;5050481;28;20469;-53
2022/06/13 05:42:50;;;;;;;20.17;4.30;;;15.30;66.40;;;;;;5045776;28;20528;-54
2022/06/13 05:45:20;;;;;;;9.80;3.43;;;15.30;67.20;;;;;;5044636;28;20556;-54
2022/06/13 05:47:49;;;;;;;11.43;4.03;;;15.30;76.80;;;;;;5047226;28;20485;-54
2022/06/13 05:50:18;;;;;;;16.60;3.90;;;15.30;81.80;;;;;;5046272;28;20684;-54
2022/06/13 05:52:45;;;;;;;12.07;3.70;;;15.30;75.60;;;;;;5049863;28;20477;-54
2022/06/13 05:55:12;;;;;;;8.87;3.90;;;15.40;80.00;;;;;;5052306;28;20526;-55
2022/06/13 05:57:40;;;;;;;12.37;3.53;;;15.40;78.40;;;;;;5044995;28;20893;-54
2022/06/13 06:00:13;;;;;;;8.23;3.27;;;15.50;95.00;;;;;;5043303;28;20458;-54
2022/06/13 06:02:41;;;;;;;15.23;3.00;;;15.40;94.80;;;;;;5042305;28;20850;-54
2022/06/13 06:05:08;;;;;;;14.33;3.60;;;15.50;97.80;;;;;;5036939;28;21280;-54
2022/06/13 06:07:35;;;;;;;13.60;2.43;;;15.50;93.10;;;;;;5043180;28;20540;-54
2022/06/13 06:10:02;;;;;;;11.40;3.50;;;15.50;98.00;;;;;;5043071;28;20516;-54
2022/06/13 06:12:28;;;;;;;10.13;2.87;;;15.70;99.90;;;;;;5040213;28;20569;-54
2022/06/13 06:14:55;;;;;;;8.40;2.63;;;15.70;98.20;;;;;;5038441;28;20556;-54
2022/06/13 06:17:22;;;;;;;5.90;2.90;;;15.80;98.90;;;;;;5048297;28;20504;-54
2022/06/13 06:19:50;;;;;;;6.63;2.47;;;15.80;99.90;;;;;;5053549;28;20465;-54
2022/06/13 06:22:16;;;;;;;13.37;3.60;;;15.80;99.90;;;;;;5047494;28;20485;-54
2022/06/13 06:24:43;;;;;;;13.43;3.37;;;15.80;99.90;;;;;;5046395;28;20489;-54
2022/06/13 06:27:12;;;;;;;5.87;2.77;;;15.70;99.90;;;;;;5050192;28;20551;-55
2022/06/13 06:29:39;;;;;;;8.77;2.83;;;15.70;99.90;;;;;;5049329;28;20486;-54
2022/06/13 06:32:06;;;;;;;5.80;2.23;;;15.70;99.90;;;;;;5041890;28;20477;-56
2022/06/13 06:34:33;;;;;;;5.40;2.30;;;15.70;99.90;;;;;;5041862;28;21023;-53
2022/06/13 06:37:00;;;;;;;11.10;3.20;;;15.70;99.90;;;;;;5041253;28;20556;-53
2022/06/13 06:39:27;;;;;;;9.63;2.70;;;15.60;99.90;;;;;;5040098;28;20485;-54
2022/06/13 06:41:53;;;;;;;8.20;3.40;;;15.60;99.90;;;;;;5046458;28;20664;-53
2022/06/13 06:44:20;;;;;;;6.07;2.23;;;15.60;99.90;;;;;;5042725;28;20561;-55
2022/06/13 06:46:48;;;;;;;8.30;2.57;;;15.70;99.90;;;;;;5050930;28;20490;-53
2022/06/13 06:49:15;;;;;;;6.80;2.40;;;15.70;99.90;;;;;;5051304;28;20471;-53
2022/06/13 06:51:43;;;;;;;5.13;2.17;;;15.70;99.90;;;;;;5049425;28;20473;-54
2022/06/13 06:59:55;;;;;;;9.30;2.50;;;15.80;99.90;;;;;;5054155;28;20545;-53
2022/06/13 07:02:23;;;;;;;6.03;2.30;;;15.80;99.90;;;;;;5048483;28;20507;-54
2022/06/13 07:04:51;;;;;;;8.60;3.70;;;15.90;99.90;;;;;;5054965;28;20464;-54
2022/06/13 07:07:17;;;;;;;4.60;2.00;;;16.00;99.90;;;;;;5052758;28;20545;-53
2022/06/13 07:09:45;;;;;;;5.47;2.23;;;16.10;99.90;;;;;;5046937;28;20561;-53
2022/06/13 07:12:12;;;;;;;7.37;2.20;;;16.30;99.90;;;;;;5051699;28;20509;-55
2022/06/13 07:14:39;;;;;;;6.90;2.20;;;16.30;99.90;;;;;;5049439;28;20576;-54
2022/06/13 07:17:07;;;;;;;8.50;2.07;;;16.40;99.90;;;;;;5048388;28;20481;-54
2022/06/13 07:19:35;;;;;;;19.47;2.80;;;16.50;99.90;;;;;;5051669;28;20517;-53
2022/06/13 07:22:02;;;;;;;9.50;3.17;;;16.60;99.90;;;;;;5049125;28;20630;-54
2022/06/13 07:24:31;;;;;;;7.40;2.53;;;16.70;99.90;;;;;;5051432;28;20493;-54
2022/06/13 07:26:59;;;;;;;8.33;2.50;;;16.70;99.90;;;;;;5048217;28;20462;-53
2022/06/13 07:29:26;;;;;;;8.20;2.30;;;16.50;99.90;;;;;;5044877;28;20580;-53
2022/06/13 07:31:58;;;;;;;10.30;2.47;;;16.50;99.90;;;;;;5044127;28;20520;-55
2022/06/13 07:34:27;;;;;;;7.93;2.73;;;16.40;99.90;;;;;;5049057;28;20465;-54
2022/06/13 07:36:56;;;;;;;8.03;2.60;;;16.40;99.90;;;;;;5055613;28;20505;-53
2022/06/13 07:39:23;;;;;;;4.87;2.23;;;16.40;99.90;;;;;;5054666;28;20492;-53
2022/06/13 07:41:51;;;;;;;7.27;2.40;;;16.30;99.90;;;;;;5046500;28;20490;-53
2022/06/13 07:44:22;;;;;;;8.57;3.13;;;16.40;99.90;;;;;;5046699;28;21169;-53
2022/06/13 07:46:50;;;;;;;10.83;3.23;;;16.30;99.90;;;;;;5049753;28;20458;-53
2022/06/13 07:49:18;;;;;;;9.17;3.67;;;16.20;99.90;;;;;;5049261;28;21977;-53
2022/06/13 07:51:44;;;;;;;12.37;3.50;;;16.20;99.90;;;;;;5050075;28;20508;-53
2022/06/13 07:54:11;;;;;;;9.40;3.03;;;16.10;99.90;;;;;;5044265;28;20466;-53
2022/06/13 07:56:38;;;;;;;8.60;3.57;;;16.10;99.90;;;;;;5048234;28;20579;-53
2022/06/13 07:59:06;;;;;;;9.13;2.47;;;16.10;99.90;;;;;;5047984;28;20490;-53
2022/06/13 08:01:37;;;;;;;9.10;2.97;;;16.20;99.90;;;;;;5044798;28;20482;-53
2022/06/13 08:04:04;;;;;;;14.77;3.70;;;16.20;99.90;;;;;;5050513;28;20492;-53
2022/06/13 08:06:31;;;;;;;27.43;3.67;;;16.20;99.90;;;;;;5048894;28;20541;-52
2022/06/13 08:08:57;;;;;;;12.87;2.73;;;16.30;99.90;;;;;;5058759;28;21099;-54
2022/06/13 08:11:29;;;;;;;12.83;2.57;;;16.30;99.90;;;;;;5045328;28;20545;-54
2022/06/13 08:13:56;;;;;;;5.37;2.07;;;16.40;99.90;;;;;;5046557;28;20547;-54
2022/06/13 08:16:22;;;;;;;12.27;3.30;;;16.40;99.90;;;;;;5048593;28;20477;-52
2022/06/13 08:18:50;;;;;;;8.80;2.67;;;16.60;99.90;;;;;;5052055;28;20473;-54
2022/06/13 08:21:17;;;;;;;26.63;3.40;;;16.70;99.90;;;;;;5050898;28;20497;-54
2022/06/13 08:23:44;;;;;;;17.10;2.80;;;16.80;99.90;;;;;;5052096;28;20465;-54
2022/06/13 08:26:12;;;;;;;5.20;2.27;;;16.90;99.90;;;;;;5050287;28;20481;-53
2022/06/13 08:28:38;;;;;;;7.43;2.60;;;16.90;99.90;;;;;;5041994;28;20543;-54
2022/06/13 08:31:08;;;;;;;11.50;2.50;;;17.00;99.90;;;;;;5041098;28;20558;-54
2022/06/13 08:33:35;;;;;;;7.13;2.27;;;17.10;99.90;;;;;;5042329;28;20553;-53
2022/06/13 08:36:03;;;;;;;3.43;2.20;;;17.10;99.90;;;;;;5047786;28;20507;-53
2022/06/13 08:38:30;;;;;;;13.87;2.90;;;17.00;99.90;;;;;;5041530;28;20549;-53
2022/06/13 08:41:04;;;;;;;11.40;3.03;;;17.00;99.90;;;;;;5042742;28;20497;-53
2022/06/13 08:44:02;;;;;;;7.13;2.20;;;17.00;99.90;;;;;;5042350;28;20497;-53
2022/06/13 08:46:36;;;;;;;6.13;2.10;;;17.00;99.90;;;;;;5041546;28;20458;-53
2022/06/13 08:49:07;;;;;;;9.13;2.70;;;17.10;99.90;;;;;;5045200;28;20918;-53
2022/06/13 08:51:41;;;;;;;8.07;2.67;;;17.10;99.90;;;;;;5048765;28;20480;-54
2022/06/13 08:54:10;;;;;;;8.90;2.63;;;17.10;99.90;;;;;;5045850;28;20531;-54
2022/06/13 08:56:37;;;;;;;6.30;2.50;;;17.20;99.90;;;;;;5046851;28;20557;-53
2022/06/13 08:59:26;;;;;;;8.47;2.53;;;17.10;99.90;;;;;;5046559;28;20458;-53
2022/06/13 09:01:58;;;;;;;10.87;2.80;;;17.20;99.90;;;;;;5046422;28;20499;-53
2022/06/13 09:04:29;;;;;;;13.77;3.10;;;17.30;99.90;;;;;;5054164;28;20490;-53
2022/06/13 09:07:03;;;;;;;8.13;2.50;;;17.30;99.90;;;;;;5056808;28;20450;-54
2022/06/13 09:09:38;;;;;;;10.23;3.10;;;17.30;99.90;;;;;;5052748;28;20551;-54
2022/06/13 09:12:08;;;;;;;23.80;4.07;;;17.30;99.90;;;;;;5044457;28;20576;-55
2022/06/13 09:14:36;;;;;;;14.80;3.37;;;17.20;99.90;;;;;;5048785;28;20454;-53
2022/06/13 09:17:10;;;;;;;11.47;2.30;;;17.30;99.90;;;;;;5047050;28;21023;-55
2022/06/13 09:19:41;;;;;;;14.87;2.73;;;17.20;99.90;;;;;;5044483;28;20456;-54
2022/06/13 09:22:15;;;;;;;16.20;3.80;;;17.50;99.90;;;;;;5042193;28;20517;-53
2022/06/13 09:24:48;;;;;;;14.60;2.80;;;17.60;99.90;;;;;;5043617;28;20489;-54
2022/06/13 09:27:19;;;;;;;5.30;2.90;;;17.60;99.90;;;;;;5048718;28;20478;-53
2022/06/13 09:29:52;;;;;;;10.00;3.50;;;17.70;99.90;;;;;;5047139;28;21022;-54
2022/06/13 09:32:21;;;;;;;14.40;3.80;;;17.80;99.90;;;;;;5044308;28;20574;-54
2022/06/13 09:34:50;;;;;;;6.67;2.30;;;17.90;99.90;;;;;;5046584;28;20500;-53
2022/06/13 09:37:23;;;;;;;6.20;2.73;;;18.10;99.90;;;;;;5049218;28;20514;-53
2022/06/13 09:39:51;;;;;;;7.37;2.87;;;18.20;99.90;;;;;;5052316;28;20493;-53
2022/06/13 09:42:41;;;;;;;11.50;2.60;;;18.50;99.90;;;;;;5050324;28;20489;-50
2022/06/13 09:45:22;;;;;;;6.80;3.30;;;18.70;99.90;;;;;;5046535;28;20596;-50
2022/06/13 09:47:56;;;;;;;17.57;2.80;;;18.90;99.90;;;;;;5045672;28;20532;-50
2022/06/13 09:50:31;;;;;;;15.87;3.60;;;19.10;99.90;;;;;;5047173;28;20500;-50
2022/06/13 09:53:04;;;;;;;6.00;2.47;;;19.30;99.90;;;;;;5043873;28;20581;-49
2022/06/13 09:55:46;;;;;;;10.37;3.00;;;19.40;99.90;;;;;;5047710;28;20588;-49
2022/06/13 09:58:20;;;;;;;8.40;2.80;;;19.50;99.90;;;;;;5042069;28;20458;-50
2022/06/13 10:00:52;;;;;;;13.13;3.10;;;19.40;99.90;;;;;;5044110;28;20547;-49
2022/06/13 10:03:30;;;;;;;6.93;2.70;;;19.40;99.90;;;;;;5041457;28;20488;-49
2022/06/13 10:06:04;;;;;;;6.37;2.53;;;19.70;99.90;;;;;;5044082;28;20477;-50
2022/06/13 10:08:47;;;;;;;7.20;2.20;;;19.60;99.90;;;;;;5041049;28;20493;-50
2022/06/13 10:11:20;;;;;;;9.73;2.77;;;19.60;99.90;;;;;;5041129;28;20941;-49
2022/06/13 10:14:04;;;;;;;6.43;2.70;;;19.70;99.90;;;;;;5042266;28;20548;-50
2022/06/13 10:16:40;;;;;;;4.43;2.33;;;19.80;99.90;;;;;;5039488;28;20481;-51
2022/06/13 10:19:22;;;;;;;11.47;2.23;;;19.80;99.90;;;;;;5047357;28;20457;-50
2022/06/13 10:21:52;;;;;;;11.77;2.60;;;19.80;99.90;;;;;;5051331;28;20520;-50
2022/06/13 10:24:31;;;;;;;11.37;2.50;;;19.60;99.90;;;;;;5053090;28;20831;-50
2022/06/13 10:27:05;;;;;;;8.77;2.80;;;19.60;99.90;;;;;;5049635;28;20573;-50
2022/06/13 10:29:59;;;;;;;10.27;3.60;;;19.60;99.90;;;;;;5039710;28;20489;-49
2022/06/13 10:32:42;;;;;;;10.23;2.70;;;19.60;99.90;;;;;;5038698;28;20521;-49
2022/06/13 10:35:20;;;;;;;13.00;2.23;;;19.70;99.90;;;;;;5043292;28;20454;-50
2022/06/13 10:37:57;;;;;;;10.93;2.80;;;19.90;99.90;;;;;;5044616;28;20544;-50
2022/06/13 10:40:27;;;;;;;9.23;2.87;;;20.20;99.90;;;;;;5046826;28;20493;-50
2022/06/13 10:42:54;;;;;;;7.60;2.50;;;20.30;99.90;;;;;;5044321;28;20523;-49
2022/06/13 10:45:23;;;;;;;7.20;2.43;;;20.30;99.90;;;;;;5041856;28;20527;-50
2022/06/13 10:47:53;;;;;;;5.33;2.13;;;20.30;99.90;;;;;;5046964;28;20457;-50
2022/06/13 10:50:25;;;;;;;8.27;3.33;;;20.40;99.90;;;;;;5041172;28;20549;-49
2022/06/13 10:52:57;;;;;;;8.23;2.40;;;20.30;99.90;;;;;;5042505;28;20502;-51
2022/06/13 10:55:27;;;;;;;6.90;1.90;;;20.40;99.90;;;;;;5040143;28;20540;-50
2022/06/13 10:58:01;;;;;;;10.30;2.23;;;20.50;99.90;;;;;;5042068;28;20520;-51
2022/06/13 11:00:30;;;;;;;4.73;2.10;;;20.50;99.90;;;;;;5044213;28;20594;-51
2022/06/13 11:03:11;;;;;;;5.60;1.40;;;20.60;99.90;;;;;;5045476;28;20490;-51
2022/06/13 11:05:52;;;;;;;4.60;1.30;;;20.70;99.90;;;;;;5040819;28;20461;-50
2022/06/13 11:08:19;;;;;;;7.60;2.10;;;20.60;99.90;;;;;;5043316;28;20454;-51
2022/06/13 11:10:55;;;;;;;6.53;1.90;;;20.60;99.90;;;;;;5043086;28;20489;-51
2022/06/13 11:13:28;;;;;;;4.43;2.33;;;20.50;99.90;;;;;;5053921;28;20598;-50
2022/06/13 11:24:20;;;;;;;4.20;1.50;;;20.80;99.90;;;;;;5047312;28;20472;-51
2022/06/13 11:29:36;;;;;;;4.00;1.53;;;20.80;99.90;;;;;;5042665;28;20537;-50
2022/06/13 11:32:06;;;;;;;2.50;1.70;;;20.70;99.90;;;;;;5043639;28;20482;-50
2022/06/13 11:34:38;;;;;;;11.80;2.17;;;20.50;99.90;;;;;;5044102;28;20549;-50
2022/06/13 11:37:14;;;;;;;15.53;1.80;;;19.90;99.90;;;;;;5048721;28;20509;-51
2022/06/13 11:39:43;;;;;;;22.70;1.90;;;19.80;99.90;;;;;;5050768;28;20485;-50
2022/06/13 11:42:22;;;;;;;6.20;2.50;;;19.60;99.90;;;;;;5043820;28;20558;-50
2022/06/13 11:44:53;;;;;;;4.73;1.97;;;19.40;99.90;;;;;;5045921;28;20561;-50
2022/06/13 11:47:21;;;;;;;5.80;1.67;;;19.30;99.90;;;;;;5040923;28;20898;-50
2022/06/13 11:49:50;;;;;;;17.33;1.90;;;19.20;99.90;;;;;;5037191;28;20555;-50
2022/06/13 11:55:23;;;;;;;5.37;1.87;;;19.20;99.90;;;;;;5039366;28;20480;-50
2022/06/13 11:57:56;;;;;;;14.23;2.73;;;19.20;99.90;;;;;;5042599;28;20597;-50
2022/06/13 12:00:28;;;;;;;3.23;1.80;;;18.80;99.90;;;;;;5040739;28;20457;-52
2022/06/13 12:03:01;;;;;;;4.80;1.90;;;18.70;99.90;;;;;;5041948;28;20517;-50
2022/06/13 12:05:32;;;;;;;7.80;2.13;;;18.50;99.90;;;;;;5043020;28;20489;-49
2022/06/13 12:08:02;;;;;;;6.73;2.77;;;18.20;99.90;;;;;;5051782;28;20536;-49
2022/06/13 12:10:31;;;;;;;3.93;1.97;;;18.10;99.90;;;;;;5054498;28;20548;-50
2022/06/13 12:12:59;;;;;;;13.50;2.27;;;18.10;99.90;;;;;;5047436;28;20509;-50
2022/06/13 12:15:35;;;;;;;12.13;2.13;;;18.00;99.90;;;;;;5046477;28;20533;-50
2022/06/13 12:18:09;;;;;;;1.80;1.30;;;18.00;99.90;;;;;;5045732;28;20862;-51
2022/06/13 12:20:44;;;;;;;15.33;1.80;;;17.90;99.90;;;;;;5046719;28;20545;-50
2022/06/13 12:23:16;;;;;;;8.63;1.80;;;17.90;99.90;;;;;;5049678;28;20476;-49
2022/06/13 12:25:51;;;;;;;4.67;1.47;;;18.00;99.90;;;;;;5054353;28;20501;-49
2022/06/13 12:28:22;;;;;;;1.97;1.30;;;18.30;99.90;;;;;;5050144;28;20477;-49
2022/06/13 12:30:55;;;;;;;5.43;1.57;;;18.60;99.90;;;;;;5051513;28;20489;-49
2022/06/13 12:33:42;;;;;;;3.60;1.67;;;18.90;99.90;;;;;;5041489;28;20568;-50
2022/06/13 12:36:19;;;;;;;5.37;1.80;;;19.30;99.90;;;;;;5057112;28;20871;-50
2022/06/13 12:38:59;;;;;;;4.03;2.30;;;19.50;99.90;;;;;;5052459;28;20481;-51
2022/06/13 12:41:34;;;;;;;6.13;1.30;;;19.80;99.90;;;;;;5051426;28;20906;-51
2022/06/13 12:44:23;;;;;;;2.00;1.50;;;20.00;99.90;;;;;;5047323;28;20573;-51
2022/06/13 12:47:12;;;;;;;2.60;1.50;;;20.00;99.90;;;;;;5056488;28;20481;-50
2022/06/13 12:49:53;;;;;;;7.73;2.00;;;20.20;99.90;;;;;;5045103;28;20545;-49
2022/06/13 12:52:36;;;;;;;7.20;1.80;;;20.20;99.90;;;;;;5043398;28;20584;-50
2022/06/13 12:55:19;;;;;;;4.73;1.70;;;20.30;99.90;;;;;;5052306;28;20503;-49
2022/06/13 12:57:58;;;;;;;8.43;1.87;;;20.00;99.90;;;;;;5045205;28;20552;-49
2022/06/13 13:00:35;;;;;;;23.37;2.23;;;19.70;99.90;;;;;;5051444;28;20481;-49
2022/06/13 13:03:21;;;;;;;6.97;2.30;;;19.10;99.90;;;;;;5045767;28;20489;-50
2022/06/13 13:05:57;;;;;;;23.87;1.40;;;18.40;99.90;;;;;;5040995;28;20485;-49
2022/06/13 13:08:38;;;;;;;19.83;2.70;;;17.90;99.90;;;;;;5051683;28;20564;-49
2022/06/13 13:11:15;;;;;;;15.87;2.10;;;17.40;99.90;;;;;;5052899;28;20488;-50
2022/06/13 13:13:48;;;;;;;14.00;1.53;;;17.10;99.90;;;;;;5059220;28;20990;-49
2022/06/13 13:16:31;;;;;;;10.40;1.93;;;16.90;99.90;;;;;;5047972;28;20545;-49
2022/06/13 13:19:36;;;;;;;15.63;2.37;;;16.50;99.90;;;;;;5046331;28;20870;-49
2022/06/13 13:22:11;;;;;;;4.40;1.50;;;16.30;90.60;;;;;;5050022;28;20488;-49
2022/06/13 13:24:49;;;;;;;7.60;1.70;;;15.90;23.70;;;;;;5050889;28;20860;-50
2022/06/13 13:27:18;;;;;;;4.53;1.50;;;15.60;99.90;;;;;;5053938;28;20949;-50
2022/06/13 13:29:52;;;;;;;9.20;2.13;;;15.50;99.90;;;;;;5055124;28;20496;-50
2022/06/13 13:32:30;;;;;;;6.93;1.90;;;15.70;99.90;;;;;;5062053;28;20572;-49